Time;durP1;ratioP1;P1;durP2;ratioP2;P2;SDS_P1;SDS_P2;PMS_P1;PMS_P2;Temp;Humidity;BMP_temperature;BMP_pressure;BME280_temperature;BME280_humidity;BME280_pressure;Samples;Min_cycle;Max_cycle;Signal;HPM_P1;HPM_P2
2022/06/16 00:00:15;;;;;;;6.18;4.07;;;12.70;99.90;;;;;;5054427;28;20536;-74
2022/06/16 00:02:47;;;;;;;4.40;3.80;;;12.70;99.90;;;;;;5054284;28;20475;-69
2022/06/16 00:05:15;;;;;;;7.38;3.88;;;12.60;99.80;;;;;;5054147;28;20052;-75
2022/06/16 00:07:41;;;;;;;4.80;3.55;;;12.60;99.90;;;;;;5036283;28;20021;-74
2022/06/16 00:10:08;;;;;;;5.40;3.83;;;12.60;99.30;;;;;;5054201;28;20135;-74
2022/06/16 00:12:34;;;;;;;4.75;3.90;;;12.70;99.20;;;;;;5036249;28;20017;-69
2022/06/16 00:15:00;;;;;;;6.80;4.00;;;12.70;99.70;;;;;;5054255;28;20525;-69
2022/06/16 00:17:26;;;;;;;5.38;3.75;;;12.70;99.70;;;;;;5036212;28;20021;-74
2022/06/16 00:19:52;;;;;;;5.78;3.72;;;12.70;99.90;;;;;;5054178;28;20029;-70
2022/06/16 00:22:18;;;;;;;4.78;3.47;;;12.70;99.90;;;;;;5057489;28;20044;-74
2022/06/16 00:24:44;;;;;;;4.82;3.58;;;12.70;99.70;;;;;;5055812;28;20025;-70
2022/06/16 00:27:10;;;;;;;8.70;4.82;;;12.70;98.00;;;;;;5056143;28;20024;-69
2022/06/16 00:29:35;;;;;;;6.20;4.28;;;12.80;98.50;;;;;;5073927;28;20362;-70
2022/06/16 00:32:02;;;;;;;4.07;3.67;;;12.70;99.90;;;;;;5073878;28;20061;-74
2022/06/16 00:34:29;;;;;;;5.35;3.95;;;12.70;99.90;;;;;;5073599;28;20021;-69
2022/06/16 00:36:55;;;;;;;5.97;4.13;;;12.70;99.90;;;;;;5042290;28;20017;-74
2022/06/16 00:39:20;;;;;;;7.75;3.97;;;12.70;99.90;;;;;;5035729;28;20501;-74
2022/06/16 00:41:47;;;;;;;6.30;4.00;;;12.60;99.90;;;;;;5053696;28;20391;-71
2022/06/16 00:44:24;;;;;;;4.75;4.28;;;12.60;98.50;;;;;;5053532;28;20104;-69
2022/06/16 00:46:50;;;;;;;6.20;4.43;;;12.60;97.50;;;;;;5053545;28;20035;-74
2022/06/16 00:49:16;;;;;;;6.22;4.03;;;12.60;99.60;;;;;;5053452;28;20025;-74
2022/06/16 00:51:52;;;;;;;4.97;4.07;;;12.60;99.90;;;;;;5053601;28;20449;-74
2022/06/16 00:54:34;;;;;;;5.70;4.70;;;12.60;99.90;;;;;;5053188;28;20029;-74
2022/06/16 00:57:08;;;;;;;6.68;3.83;;;12.50;99.90;;;;;;5035573;28;20121;-75
2022/06/16 00:59:36;;;;;;;7.30;4.47;;;12.50;99.90;;;;;;5053444;28;20028;-69
2022/06/16 01:02:04;;;;;;;8.48;4.85;;;12.40;99.90;;;;;;5052959;28;20471;-70
2022/06/16 01:07:16;;;;;;;5.20;4.45;;;12.40;99.90;;;;;;5053677;28;20048;-70
2022/06/16 01:09:43;;;;;;;7.43;4.80;;;12.50;99.90;;;;;;5053303;28;20433;-71
2022/06/16 01:15:48;;;;;;;6.50;4.85;;;12.40;99.90;;;;;;5053262;28;20114;-69
2022/06/16 01:18:24;;;;;;;7.55;5.90;;;12.30;99.90;;;;;;5053363;28;20021;-69
2022/06/16 01:20:58;;;;;;;6.85;5.72;;;12.30;99.90;;;;;;5035328;28;20036;-70
2022/06/16 01:23:52;;;;;;;8.95;6.07;;;12.30;99.90;;;;;;5048132;28;20035;-69
2022/06/16 01:26:20;;;;;;;10.02;6.22;;;12.30;99.90;;;;;;5073167;28;20394;-75
2022/06/16 01:29:19;;;;;;;10.40;5.53;;;12.30;99.90;;;;;;5073012;28;20017;-69
2022/06/16 01:31:57;;;;;;;6.72;5.65;;;12.30;99.90;;;;;;5073322;28;20104;-70
2022/06/16 01:34:44;;;;;;;7.95;5.25;;;12.30;99.90;;;;;;5054832;28;20028;-69
2022/06/16 01:37:28;;;;;;;7.13;4.75;;;12.30;99.90;;;;;;5038895;28;20029;-69
2022/06/16 01:40:01;;;;;;;6.25;5.28;;;12.30;99.90;;;;;;5052908;28;20052;-69
2022/06/16 01:42:29;;;;;;;10.02;5.43;;;12.30;99.90;;;;;;5035210;28;20025;-74
2022/06/16 01:45:34;;;;;;;6.60;5.25;;;12.30;99.90;;;;;;5034954;28;20437;-74
2022/06/16 01:48:01;;;;;;;6.63;4.65;;;12.30;99.90;;;;;;5053009;28;20032;-74
2022/06/16 01:50:45;;;;;;;6.78;5.40;;;12.30;99.90;;;;;;5053025;28;20017;-73
2022/06/16 01:53:21;;;;;;;9.43;5.45;;;12.30;99.90;;;;;;5035055;28;20033;-74
2022/06/16 01:56:06;;;;;;;5.80;4.82;;;12.30;99.90;;;;;;5034964;28;20033;-69
2022/06/16 01:58:36;;;;;;;5.10;4.50;;;12.30;99.90;;;;;;5052903;28;20071;-70
2022/06/16 02:01:06;;;;;;;6.60;5.78;;;12.40;99.90;;;;;;5034994;28;20017;-69
2022/06/16 02:03:40;;;;;;;7.75;4.57;;;12.40;99.90;;;;;;5034782;28;20020;-70
2022/06/16 02:06:14;;;;;;;8.77;5.32;;;12.40;99.90;;;;;;5052376;28;20526;-75
2022/06/16 02:08:44;;;;;;;5.38;4.55;;;12.40;99.90;;;;;;5052823;28;20048;-69
2022/06/16 02:11:20;;;;;;;7.10;5.28;;;12.40;99.90;;;;;;5052756;28;20025;-69
2022/06/16 02:13:57;;;;;;;5.50;4.70;;;12.40;99.90;;;;;;5036067;28;20017;-69
2022/06/16 02:16:27;;;;;;;5.10;4.43;;;12.40;99.90;;;;;;5038583;28;20060;-75
2022/06/16 02:18:54;;;;;;;5.75;4.53;;;12.40;99.90;;;;;;5038563;28;20398;-74
2022/06/16 02:21:35;;;;;;;5.97;5.03;;;12.40;99.90;;;;;;5056529;28;20429;-74
2022/06/16 02:24:03;;;;;;;5.63;4.53;;;12.40;99.90;;;;;;5074419;28;20036;-75
2022/06/16 02:26:29;;;;;;;7.50;4.88;;;12.50;99.90;;;;;;5076032;28;20032;-70
2022/06/16 02:28:58;;;;;;;5.18;4.68;;;12.50;99.90;;;;;;5076128;28;20020;-74
2022/06/16 02:31:39;;;;;;;9.18;4.70;;;12.50;99.90;;;;;;5076326;28;20070;-74
2022/06/16 02:34:23;;;;;;;8.25;4.90;;;12.50;99.90;;;;;;5076324;28;20020;-74
2022/06/16 02:37:01;;;;;;;5.70;4.18;;;12.50;99.90;;;;;;5062653;28;20101;-74
2022/06/16 02:39:45;;;;;;;7.32;4.63;;;12.60;99.80;;;;;;5056064;28;20021;-69
2022/06/16 02:42:56;;;;;;;6.72;4.85;;;12.60;99.90;;;;;;5055902;28;20021;-74
2022/06/16 02:46:03;;;;;;;7.57;4.82;;;12.60;99.90;;;;;;5024844;28;20041;-75
2022/06/16 02:48:52;;;;;;;6.90;5.13;;;12.60;99.90;;;;;;5056028;28;20501;-69
2022/06/16 02:51:29;;;;;;;7.72;4.53;;;12.70;99.90;;;;;;5055921;28;20096;-74
2022/06/16 02:54:23;;;;;;;6.38;5.05;;;12.70;99.90;;;;;;5055688;28;20017;-74
2022/06/16 02:56:58;;;;;;;6.00;4.40;;;12.70;99.90;;;;;;5024885;28;20040;-69
2022/06/16 02:59:33;;;;;;;6.10;4.40;;;12.70;99.90;;;;;;5055753;28;20025;-74
2022/06/16 03:02:09;;;;;;;10.13;5.05;;;12.70;99.90;;;;;;5055598;28;20049;-75
2022/06/16 03:04:40;;;;;;;5.47;4.60;;;12.70;99.90;;;;;;5055218;28;20501;-69
2022/06/16 03:07:07;;;;;;;5.88;4.68;;;12.80;99.20;;;;;;5037682;28;20071;-74
2022/06/16 03:09:32;;;;;;;7.00;4.50;;;12.80;98.90;;;;;;5055522;28;20032;-69
2022/06/16 03:11:58;;;;;;;6.80;4.80;;;12.90;99.90;;;;;;5055480;28;20029;-74
2022/06/16 03:14:24;;;;;;;14.02;5.40;;;12.90;99.90;;;;;;5055516;28;20520;-73
2022/06/16 03:16:50;;;;;;;6.18;4.85;;;13.00;99.90;;;;;;5055375;28;20024;-74
2022/06/16 03:19:17;;;;;;;8.30;4.35;;;13.00;99.90;;;;;;5055244;28;20478;-74
2022/06/16 03:21:43;;;;;;;5.97;4.78;;;13.10;99.90;;;;;;5055261;28;20074;-74
2022/06/16 03:24:09;;;;;;;7.28;4.68;;;13.10;99.90;;;;;;5074515;28;20016;-69
2022/06/16 03:26:35;;;;;;;6.28;4.40;;;13.10;99.90;;;;;;5075198;28;20029;-74
2022/06/16 03:29:00;;;;;;;6.93;4.90;;;13.10;99.90;;;;;;5075265;28;20024;-70
2022/06/16 03:31:26;;;;;;;9.85;4.90;;;13.10;99.90;;;;;;5075263;28;20029;-74
2022/06/16 03:33:52;;;;;;;8.25;5.07;;;13.10;99.90;;;;;;5057211;28;20111;-74
2022/06/16 03:36:17;;;;;;;5.63;4.97;;;13.10;99.90;;;;;;5067511;28;20025;-69
2022/06/16 03:38:43;;;;;;;11.60;4.43;;;13.10;99.90;;;;;;5054980;28;20526;-74
2022/06/16 03:41:10;;;;;;;8.27;5.55;;;13.30;99.90;;;;;;5054651;28;20442;-69
2022/06/16 03:43:36;;;;;;;8.48;4.55;;;13.40;99.90;;;;;;5036787;28;20032;-75
2022/06/16 03:46:02;;;;;;;6.65;5.03;;;13.60;99.90;;;;;;5054528;28;20037;-69
2022/06/16 03:48:27;;;;;;;6.60;4.85;;;13.80;99.00;;;;;;5054816;28;20025;-74
2022/06/16 03:50:53;;;;;;;8.65;4.93;;;14.00;97.00;;;;;;5054640;28;20025;-74
2022/06/16 03:53:19;;;;;;;9.70;5.25;;;14.30;96.00;;;;;;5054619;28;20029;-71
2022/06/16 03:55:44;;;;;;;5.50;4.68;;;14.50;92.40;;;;;;5054414;28;20528;-69
2022/06/16 03:58:12;;;;;;;6.90;4.50;;;14.80;91.50;;;;;;5054580;28;20108;-75
2022/06/16 04:00:38;;;;;;;7.20;4.82;;;15.10;90.10;;;;;;5036609;28;20028;-69
2022/06/16 04:05:48;;;;;;;6.25;4.40;;;15.40;85.50;;;;;;5070804;28;20464;-69
2022/06/16 04:08:16;;;;;;;5.13;4.32;;;15.20;84.70;;;;;;5074180;28;20024;-70
2022/06/16 04:10:42;;;;;;;6.18;4.47;;;15.10;84.70;;;;;;5074324;28;20048;-75
2022/06/16 04:13:08;;;;;;;6.95;5.07;;;15.00;85.60;;;;;;5066184;28;20431;-75
2022/06/16 04:15:34;;;;;;;4.68;4.28;;;14.80;86.50;;;;;;5050851;28;20493;-69
2022/06/16 04:18:00;;;;;;;7.80;4.97;;;14.70;89.80;;;;;;5055960;28;20020;-74
2022/06/16 04:20:26;;;;;;;9.43;5.18;;;14.60;92.50;;;;;;5056233;28;20032;-74
2022/06/16 04:22:52;;;;;;;9.15;5.15;;;14.50;94.10;;;;;;5064483;28;20036;-74
2022/06/16 04:25:21;;;;;;;8.82;5.63;;;14.50;96.20;;;;;;5053977;28;20029;-73
2022/06/16 04:27:47;;;;;;;8.20;5.47;;;14.50;96.80;;;;;;5053935;28;20103;-69
2022/06/16 04:30:14;;;;;;;11.77;4.82;;;14.60;95.20;;;;;;5053823;28;20099;-75
2022/06/16 04:32:40;;;;;;;7.45;5.13;;;14.70;92.70;;;;;;5053809;28;20106;-74
2022/06/16 04:35:06;;;;;;;9.98;5.13;;;15.00;91.10;;;;;;5036042;28;20368;-69
2022/06/16 04:37:33;;;;;;;6.90;4.70;;;15.30;90.20;;;;;;5072316;28;20501;-69
2022/06/16 04:39:59;;;;;;;7.25;5.70;;;15.50;89.00;;;;;;5073637;28;20032;-69
2022/06/16 04:42:25;;;;;;;5.93;5.10;;;15.70;86.90;;;;;;5073612;28;20017;-69
2022/06/16 04:44:51;;;;;;;12.23;5.90;;;15.90;84.30;;;;;;5055755;28;20105;-69
2022/06/16 04:47:17;;;;;;;8.45;5.78;;;16.10;86.10;;;;;;5055806;28;20020;-74
2022/06/16 04:49:48;;;;;;;7.13;5.25;;;16.30;86.30;;;;;;5073669;28;20028;-74
2022/06/16 04:52:15;;;;;;;8.63;4.82;;;16.40;86.00;;;;;;5073420;28;20137;-69
2022/06/16 04:54:45;;;;;;;9.45;5.78;;;16.60;85.10;;;;;;5055643;28;20473;-69
2022/06/16 04:57:11;;;;;;;7.50;5.47;;;16.70;78.70;;;;;;5073393;28;20386;-74
2022/06/16 04:59:37;;;;;;;7.72;5.75;;;16.80;77.80;;;;;;5069012;28;20035;-69
2022/06/16 05:02:04;;;;;;;9.63;6.03;;;16.90;77.30;;;;;;5073248;28;20036;-74
2022/06/16 05:04:30;;;;;;;7.03;5.32;;;16.90;77.80;;;;;;5055465;28;20024;-71
2022/06/16 05:06:56;;;;;;;9.23;5.28;;;17.00;77.10;;;;;;5073213;28;20028;-74
2022/06/16 05:09:23;;;;;;;7.70;5.75;;;17.10;76.90;;;;;;5055252;28;20462;-69
2022/06/16 05:11:49;;;;;;;8.75;5.38;;;17.20;77.30;;;;;;5072765;28;20016;-70
2022/06/16 05:14:16;;;;;;;11.00;5.32;;;17.30;75.10;;;;;;5073080;28;20074;-69
2022/06/16 05:16:41;;;;;;;8.85;5.35;;;17.40;73.80;;;;;;5069718;28;20047;-69
2022/06/16 05:19:07;;;;;;;6.93;4.43;;;17.50;73.10;;;;;;5061960;28;20473;-70
2022/06/16 05:21:34;;;;;;;8.52;4.80;;;17.60;73.30;;;;;;5062059;28;20017;-69
2022/06/16 05:24:00;;;;;;;8.38;5.32;;;17.70;73.50;;;;;;5062207;28;20505;-69
2022/06/16 05:26:26;;;;;;;7.65;4.35;;;17.80;73.10;;;;;;5055626;28;20106;-75
2022/06/16 05:28:52;;;;;;;7.78;4.35;;;17.90;71.90;;;;;;5040988;28;20028;-75
2022/06/16 05:31:18;;;;;;;6.35;4.78;;;18.00;72.50;;;;;;5061702;28;20105;-75
2022/06/16 05:33:43;;;;;;;6.65;4.30;;;18.20;72.40;;;;;;5059697;28;20017;-76
2022/06/16 05:36:11;;;;;;;7.10;4.72;;;18.30;72.10;;;;;;5063567;28;20044;-76
2022/06/16 05:38:38;;;;;;;4.75;4.00;;;18.30;72.90;;;;;;5072433;28;20064;-75
2022/06/16 05:41:07;;;;;;;6.50;4.13;;;18.40;71.70;;;;;;5072556;28;20086;-75
2022/06/16 05:43:34;;;;;;;6.97;4.38;;;18.50;70.80;;;;;;5052796;28;20025;-75
2022/06/16 05:46:00;;;;;;;6.75;4.07;;;18.60;71.00;;;;;;5058956;28;20035;-75
2022/06/16 05:48:26;;;;;;;5.28;4.20;;;18.80;71.00;;;;;;5075094;28;20017;-75
2022/06/16 05:50:52;;;;;;;5.43;4.15;;;18.90;68.90;;;;;;5058777;28;20036;-75
2022/06/16 05:53:19;;;;;;;6.63;4.15;;;19.00;69.00;;;;;;5072688;28;20017;-75
2022/06/16 05:55:45;;;;;;;4.63;4.13;;;19.00;69.20;;;;;;5054698;28;20052;-75
2022/06/16 05:58:11;;;;;;;7.32;4.40;;;19.20;69.90;;;;;;5054270;28;20028;-75
2022/06/16 06:00:37;;;;;;;5.18;4.00;;;19.40;69.80;;;;;;5073482;28;20032;-75
2022/06/16 06:03:03;;;;;;;4.20;3.80;;;19.40;69.30;;;;;;5070022;28;20017;-75
2022/06/16 06:05:29;;;;;;;6.38;4.28;;;19.60;68.20;;;;;;5037967;28;20183;-75
2022/06/16 06:16:26;;;;;;;5.63;4.07;;;19.90;67.70;;;;;;5076658;28;20090;-75
2022/06/16 06:18:56;;;;;;;3.88;3.50;;;20.10;68.20;;;;;;5076299;28;20082;-70
2022/06/16 06:24:07;;;;;;;4.63;3.83;;;20.40;66.40;;;;;;5056163;28;20508;-69
2022/06/16 06:26:33;;;;;;;4.30;3.90;;;20.60;65.30;;;;;;5056115;28;20036;-70
2022/06/16 06:28:59;;;;;;;8.20;4.47;;;20.80;65.60;;;;;;5056078;28;20379;-74
2022/06/16 06:31:25;;;;;;;3.50;3.15;;;20.80;64.30;;;;;;5073379;28;20040;-70
2022/06/16 06:33:50;;;;;;;4.97;3.50;;;21.00;64.70;;;;;;5057938;28;20386;-75
2022/06/16 06:36:16;;;;;;;5.68;3.67;;;21.10;66.20;;;;;;5071387;28;20032;-75
2022/06/16 06:38:42;;;;;;;4.70;3.75;;;21.30;64.70;;;;;;5075992;28;20056;-71
2022/06/16 06:41:07;;;;;;;3.60;3.25;;;21.50;64.30;;;;;;5058316;28;20040;-69
2022/06/16 06:43:33;;;;;;;4.18;3.10;;;21.60;61.80;;;;;;5057996;28;20025;-75
2022/06/16 06:45:59;;;;;;;5.43;3.58;;;21.70;61.00;;;;;;5075705;28;20054;-75
2022/06/16 06:48:24;;;;;;;3.88;3.47;;;21.90;60.90;;;;;;5057843;28;20492;-75
2022/06/16 06:50:51;;;;;;;3.88;3.00;;;22.00;59.40;;;;;;5076013;28;20040;-75
2022/06/16 06:53:17;;;;;;;3.22;2.50;;;22.20;59.30;;;;;;5057792;28;20021;-75
2022/06/16 06:55:46;;;;;;;3.25;2.53;;;22.40;58.20;;;;;;5047155;28;20052;-70
2022/06/16 06:58:22;;;;;;;6.25;3.17;;;22.60;58.40;;;;;;5071487;28;20162;-69
2022/06/16 07:00:53;;;;;;;3.00;2.30;;;22.70;55.40;;;;;;5072940;28;20021;-76
2022/06/16 07:03:20;;;;;;;2.83;2.60;;;22.80;55.90;;;;;;5074169;28;20120;-75
2022/06/16 07:05:47;;;;;;;2.47;2.28;;;23.00;55.80;;;;;;5074225;28;20605;-75
2022/06/16 07:08:13;;;;;;;2.65;2.45;;;23.10;55.80;;;;;;5056066;28;20037;-75
2022/06/16 07:10:40;;;;;;;2.92;2.38;;;23.30;53.30;;;;;;5074141;28;20036;-76
2022/06/16 07:13:07;;;;;;;3.22;2.70;;;23.40;54.60;;;;;;5073892;28;20114;-75
2022/06/16 07:15:34;;;;;;;3.95;2.70;;;23.30;53.50;;;;;;5055962;28;20025;-70
2022/06/16 07:18:00;;;;;;;8.20;3.88;;;23.40;53.80;;;;;;5073959;28;20041;-75
2022/06/16 07:20:26;;;;;;;2.78;2.22;;;23.40;53.60;;;;;;5056106;28;20382;-75
2022/06/16 07:22:52;;;;;;;5.10;2.97;;;23.60;55.00;;;;;;5064938;28;20041;-75
2022/06/16 07:25:19;;;;;;;3.15;2.42;;;23.70;55.60;;;;;;5056007;28;20039;-70
2022/06/16 07:27:44;;;;;;;5.63;2.50;;;23.80;55.10;;;;;;5069382;28;20028;-70
2022/06/16 07:30:15;;;;;;;3.67;2.97;;;24.10;55.00;;;;;;5045500;28;20443;-70
2022/06/16 07:32:42;;;;;;;4.82;2.60;;;24.10;55.20;;;;;;5051088;28;20123;-75
2022/06/16 07:35:08;;;;;;;4.25;2.88;;;23.80;54.30;;;;;;5055714;28;20017;-70
2022/06/16 07:37:34;;;;;;;3.70;2.90;;;23.90;55.70;;;;;;5073277;28;20095;-69
2022/06/16 07:40:00;;;;;;;3.63;2.90;;;23.90;54.60;;;;;;5055590;28;20027;-75
2022/06/16 07:42:27;;;;;;;3.20;2.90;;;23.80;54.40;;;;;;5073256;28;20061;-70
2022/06/16 07:44:52;;;;;;;4.10;2.78;;;24.00;56.40;;;;;;5073056;28;20032;-74
2022/06/16 07:47:20;;;;;;;4.00;3.00;;;24.00;55.30;;;;;;5073339;28;20493;-75
2022/06/16 07:49:49;;;;;;;4.18;2.80;;;24.10;55.60;;;;;;5073599;28;20455;-74
2022/06/16 07:52:15;;;;;;;2.97;2.75;;;24.00;55.50;;;;;;5073277;28;20017;-71
2022/06/16 07:54:41;;;;;;;5.07;2.63;;;24.10;56.40;;;;;;5073222;28;20040;-70
2022/06/16 07:57:07;;;;;;;3.92;3.20;;;24.20;55.90;;;;;;5055441;28;20031;-71
2022/06/16 07:59:33;;;;;;;4.47;2.75;;;24.30;56.10;;;;;;5072545;28;20040;-74
2022/06/16 08:01:59;;;;;;;4.72;2.60;;;24.30;55.10;;;;;;5073319;28;20025;-70
2022/06/16 08:04:24;;;;;;;4.97;2.70;;;24.20;55.20;;;;;;5072900;28;20133;-70
2022/06/16 08:06:50;;;;;;;5.97;3.42;;;24.20;56.80;;;;;;5073269;28;20055;-75
2022/06/16 08:09:16;;;;;;;6.25;3.03;;;24.30;57.40;;;;;;5072522;28;20036;-70
2022/06/16 08:14:26;;;;;;;4.70;3.38;;;24.30;56.90;;;;;;5072331;28;20063;-74
2022/06/16 08:16:53;;;;;;;3.45;3.13;;;24.30;56.30;;;;;;5049119;28;20471;-70
2022/06/16 08:19:19;;;;;;;6.90;3.30;;;24.30;56.70;;;;;;5060219;28;20028;-70
2022/06/16 08:21:45;;;;;;;3.75;3.15;;;24.30;57.00;;;;;;5072637;28;20032;-74
2022/06/16 08:24:10;;;;;;;3.53;2.97;;;24.40;56.10;;;;;;5072489;28;20101;-70
2022/06/16 08:26:37;;;;;;;4.05;2.45;;;24.50;57.00;;;;;;5072835;28;20048;-70
2022/06/16 08:29:05;;;;;;;3.35;2.53;;;24.70;56.10;;;;;;5072429;28;20113;-70
2022/06/16 08:31:31;;;;;;;6.20;3.08;;;24.80;56.10;;;;;;5072098;28;20028;-70
2022/06/16 08:33:57;;;;;;;4.18;2.80;;;24.70;56.00;;;;;;5072583;28;20039;-74
2022/06/16 08:36:23;;;;;;;6.40;3.50;;;24.90;57.80;;;;;;5062134;28;20479;-75
2022/06/16 08:38:49;;;;;;;4.03;3.03;;;25.10;55.70;;;;;;5071432;28;20055;-75
2022/06/16 08:41:30;;;;;;;6.72;3.90;;;24.90;54.00;;;;;;5072045;28;20466;-75
2022/06/16 08:44:08;;;;;;;3.63;2.83;;;24.90;55.60;;;;;;5072123;28;20036;-75
2022/06/16 08:46:44;;;;;;;3.63;3.05;;;25.10;56.80;;;;;;5072378;28;20033;-71
2022/06/16 08:49:25;;;;;;;5.70;3.58;;;25.00;55.60;;;;;;5072050;28;20041;-69
2022/06/16 08:52:09;;;;;;;5.60;3.10;;;25.00;55.10;;;;;;5063434;28;20027;-71
2022/06/16 08:54:45;;;;;;;4.82;3.35;;;25.10;56.40;;;;;;5072252;28;20465;-71
2022/06/16 08:57:23;;;;;;;4.47;3.28;;;25.30;56.80;;;;;;5072140;28;20100;-74
2022/06/16 08:59:57;;;;;;;4.90;3.13;;;25.20;55.10;;;;;;5044786;28;20025;-74
2022/06/16 09:02:42;;;;;;;2.92;2.72;;;25.40;55.80;;;;;;5071865;28;20059;-74
2022/06/16 09:05:16;;;;;;;3.97;3.60;;;25.50;54.40;;;;;;5071663;28;20473;-71
2022/06/16 09:08:05;;;;;;;4.43;2.95;;;25.30;54.90;;;;;;5072175;28;20066;-74
2022/06/16 09:10:50;;;;;;;4.55;2.90;;;25.30;55.20;;;;;;5061424;28;20390;-71
2022/06/16 09:13:39;;;;;;;8.90;3.70;;;25.40;55.40;;;;;;5072015;28;20520;-71
2022/06/16 09:16:28;;;;;;;6.20;4.22;;;25.40;53.80;;;;;;5040984;28;20381;-71
2022/06/16 09:19:21;;;;;;;4.32;3.47;;;25.50;55.30;;;;;;5053934;28;20111;-71
2022/06/16 09:22:00;;;;;;;3.25;2.97;;;25.60;55.50;;;;;;5071651;28;20448;-73
2022/06/16 09:24:59;;;;;;;5.00;2.83;;;25.80;54.10;;;;;;5071712;28;20044;-72
2022/06/16 09:27:54;;;;;;;6.40;2.95;;;25.80;53.80;;;;;;5060037;28;20024;-74
2022/06/16 09:30:24;;;;;;;5.03;3.40;;;25.90;54.70;;;;;;5070986;28;20494;-74
2022/06/16 09:32:56;;;;;;;11.38;3.97;;;25.90;52.00;;;;;;5072296;28;20553;-72
2022/06/16 09:35:37;;;;;;;5.40;3.20;;;25.80;53.40;;;;;;5053588;28;20024;-72
2022/06/16 09:38:27;;;;;;;5.55;3.13;;;26.10;55.60;;;;;;5071593;28;20025;-72
2022/06/16 09:44:07;;;;;;;4.40;3.20;;;26.00;51.50;;;;;;5061885;28;20048;-74
2022/06/16 09:46:40;;;;;;;9.15;4.22;;;26.00;53.10;;;;;;5071781;28;20060;-72
2022/06/16 09:49:14;;;;;;;5.43;3.25;;;26.00;52.50;;;;;;5053523;28;20073;-73
2022/06/16 09:51:50;;;;;;;4.22;3.13;;;26.20;51.40;;;;;;5071796;28;20512;-72
2022/06/16 09:54:48;;;;;;;5.10;3.20;;;26.20;49.90;;;;;;5070074;28;20070;-73
2022/06/16 09:57:35;;;;;;;4.50;3.17;;;26.20;49.70;;;;;;5063188;28;20041;-72
2022/06/16 10:00:22;;;;;;;4.30;2.70;;;26.20;52.10;;;;;;5069919;28;20387;-72
2022/06/16 10:02:53;;;;;;;5.38;2.83;;;26.60;51.00;;;;;;5053522;28;20482;-72
2022/06/16 10:05:25;;;;;;;3.55;3.03;;;26.70;50.70;;;;;;5071080;28;20044;-72
2022/06/16 10:08:04;;;;;;;3.60;3.30;;;27.00;51.50;;;;;;5053428;28;20033;-72
2022/06/16 10:11:19;;;;;;;5.25;2.70;;;26.90;48.90;;;;;;5061815;28;20063;-72
2022/06/16 10:14:06;;;;;;;5.00;2.97;;;26.80;49.60;;;;;;5055008;28;20037;-72
2022/06/16 10:16:46;;;;;;;3.05;2.75;;;26.70;48.90;;;;;;5070878;28;20098;-70
2022/06/16 10:19:12;;;;;;;6.13;3.15;;;26.70;49.70;;;;;;5058104;28;20086;-72
2022/06/16 10:21:37;;;;;;;4.00;2.90;;;26.60;51.20;;;;;;5052847;28;20394;-72
2022/06/16 10:24:05;;;;;;;5.13;3.60;;;26.40;50.80;;;;;;5071218;28;20052;-74
2022/06/16 10:26:31;;;;;;;2.88;2.67;;;26.20;51.50;;;;;;5070999;28;20570;-74
2022/06/16 10:29:20;;;;;;;4.05;2.47;;;26.10;49.70;;;;;;5070682;28;20025;-75
2022/06/16 10:31:48;;;;;;;2.55;2.42;;;26.00;49.50;;;;;;5071173;28;20504;-74
2022/06/16 10:34:27;;;;;;;5.00;2.95;;;26.40;49.20;;;;;;5071378;28;20096;-72
2022/06/16 10:37:09;;;;;;;4.20;2.50;;;26.50;48.90;;;;;;5074469;28;20036;-72
2022/06/16 10:39:43;;;;;;;;;;;26.60;49.00;;;;;;5075297;28;20074;-74
2022/06/16 10:42:23;;;;;;;3.72;2.40;;;26.80;48.20;;;;;;5074492;28;19927;-74
2022/06/16 10:45:05;;;;;;;3.22;3.03;;;26.80;48.40;;;;;;5073766;28;20048;-74
2022/06/16 10:47:41;;;;;;;2.92;2.60;;;26.80;47.60;;;;;;5056891;28;20533;-74
2022/06/16 10:50:28;;;;;;;2.40;2.20;;;26.80;46.60;;;;;;5056204;28;20040;-72
2022/06/16 10:53:20;;;;;;;3.60;3.15;;;27.00;48.90;;;;;;5056556;28;20036;-72
2022/06/16 10:55:47;;;;;;;6.50;3.03;;;26.90;47.40;;;;;;5073802;28;20063;-72
2022/06/16 10:58:26;;;;;;;2.22;2.00;;;27.00;48.30;;;;;;5073626;28;20021;-72
2022/06/16 11:01:17;;;;;;;2.55;2.33;;;27.00;46.00;;;;;;5074475;28;20114;-72
2022/06/16 11:03:47;;;;;;;3.70;2.78;;;27.00;45.10;;;;;;5074770;28;20031;-72
2022/06/16 11:06:19;;;;;;;3.72;2.60;;;26.90;45.20;;;;;;5073757;28;20045;-72
2022/06/16 11:08:56;;;;;;;2.95;2.72;;;27.20;47.20;;;;;;5074391;28;20025;-72
2022/06/16 11:11:52;;;;;;;3.38;2.63;;;27.40;46.60;;;;;;5074106;28;20066;-72
2022/06/16 11:14:22;;;;;;;4.03;2.53;;;27.60;45.30;;;;;;5073243;28;20072;-71
2022/06/16 11:16:55;;;;;;;2.85;2.60;;;27.40;45.60;;;;;;5074189;28;20109;-72
2022/06/16 11:19:34;;;;;;;3.88;2.22;;;27.70;46.50;;;;;;5056004;28;20028;-72
2022/06/16 11:22:23;;;;;;;3.30;2.63;;;27.60;45.90;;;;;;5055529;28;20397;-72
2022/06/16 11:25:00;;;;;;;3.83;2.72;;;27.70;44.70;;;;;;5060124;28;20053;-72
2022/06/16 11:27:28;;;;;;;2.92;2.67;;;27.70;44.40;;;;;;5073612;28;20039;-72
2022/06/16 11:29:54;;;;;;;3.58;2.38;;;27.80;44.40;;;;;;5056021;28;20527;-72
2022/06/16 11:32:25;;;;;;;4.22;2.47;;;28.10;44.10;;;;;;5073520;28;20037;-72
2022/06/16 11:34:51;;;;;;;2.88;2.63;;;27.90;42.30;;;;;;5073844;28;20031;-72
2022/06/16 11:37:41;;;;;;;6.00;3.08;;;27.70;43.50;;;;;;5055468;28;20021;-73
2022/06/16 11:40:30;;;;;;;2.92;2.55;;;27.40;44.70;;;;;;5055455;28;20021;-72
2022/06/16 11:43:11;;;;;;;3.58;2.63;;;27.60;45.70;;;;;;5072944;28;20043;-72
2022/06/16 11:45:42;;;;;;;3.20;2.53;;;27.80;46.40;;;;;;5072963;28;20095;-72
2022/06/16 11:48:26;;;;;;;4.40;2.70;;;28.10;47.20;;;;;;5073038;28;20382;-71
2022/06/16 11:51:03;;;;;;;3.08;2.67;;;27.80;43.90;;;;;;5060565;28;20048;-72
2022/06/16 11:53:53;;;;;;;6.15;2.95;;;27.80;45.10;;;;;;5055662;28;20059;-72
2022/06/16 11:56:39;;;;;;;4.28;2.38;;;27.90;46.40;;;;;;5072908;28;20047;-72
2022/06/16 11:59:35;;;;;;;4.95;3.28;;;28.10;46.30;;;;;;5072378;28;20052;-71
2022/06/16 12:02:47;;;;;;;3.47;2.42;;;28.20;44.80;;;;;;5055101;28;20028;-72
2022/06/16 12:05:15;;;;;;;3.73;3.33;;;28.20;41.70;;;;;;5043240;28;20079;-72
2022/06/16 12:08:04;;;;;;;3.38;2.80;;;27.90;42.10;;;;;;5034566;28;20615;-72
2022/06/16 12:10:36;;;;;;;2.97;2.70;;;27.90;42.20;;;;;;5046005;28;20032;-74
2022/06/16 12:13:13;;;;;;;4.80;2.50;;;28.20;44.30;;;;;;5051806;28;20044;-74
2022/06/16 12:16:03;;;;;;;3.25;2.63;;;28.20;44.00;;;;;;5051795;28;20037;-74
2022/06/16 12:18:46;;;;;;;5.07;3.00;;;28.10;43.60;;;;;;5053273;28;20394;-72
2022/06/16 12:21:22;;;;;;;4.75;2.72;;;28.00;43.00;;;;;;5052415;28;20032;-72
2022/06/16 12:24:05;;;;;;;3.60;2.25;;;27.80;42.50;;;;;;5052893;28;20031;-72
2022/06/16 12:26:51;;;;;;;3.05;2.70;;;27.50;42.50;;;;;;5052743;28;20040;-72
2022/06/16 12:29:51;;;;;;;3.50;2.80;;;27.20;42.60;;;;;;5051394;28;20471;-72
2022/06/16 12:32:26;;;;;;;6.15;2.90;;;27.10;44.70;;;;;;5041033;28;20029;-71
2022/06/16 12:35:07;;;;;;;2.40;2.20;;;27.10;46.50;;;;;;5052737;28;20548;-72
2022/06/16 12:37:43;;;;;;;3.08;2.63;;;27.10;45.70;;;;;;5052738;28;20037;-74
2022/06/16 12:40:17;;;;;;;3.30;3.00;;;27.50;47.70;;;;;;5052153;28;20021;-73
2022/06/16 12:42:50;;;;;;;6.32;3.33;;;27.80;46.60;;;;;;5051976;28;20475;-72
2022/06/16 12:45:26;;;;;;;3.15;2.60;;;27.80;45.40;;;;;;5052222;28;20037;-72
2022/06/16 12:48:16;;;;;;;3.95;2.90;;;27.60;45.60;;;;;;5052388;28;20029;-72
2022/06/16 12:51:04;;;;;;;3.53;3.03;;;27.30;45.60;;;;;;5051657;28;20064;-72
2022/06/16 12:53:42;;;;;;;4.65;3.15;;;26.70;46.80;;;;;;5041398;28;20043;-72
2022/06/16 12:56:22;;;;;;;2.92;2.60;;;26.00;48.00;;;;;;5050985;28;20028;-72
2022/06/16 12:58:53;;;;;;;3.05;2.72;;;25.50;48.70;;;;;;5051402;28;20060;-73
2022/06/16 13:01:19;;;;;;;2.78;2.58;;;25.10;49.80;;;;;;5052110;28;20013;-73
2022/06/16 13:04:14;;;;;;;4.22;3.13;;;24.70;50.70;;;;;;5052060;28;20039;-73
2022/06/16 13:06:44;;;;;;;6.43;3.50;;;24.60;51.80;;;;;;5060525;28;20132;-73
2022/06/16 13:09:12;;;;;;;3.50;2.90;;;24.40;51.50;;;;;;5061553;28;20029;-71
2022/06/16 13:11:49;;;;;;;3.38;2.75;;;24.30;51.90;;;;;;5060068;28;20033;-72
2022/06/16 13:14:46;;;;;;;3.53;3.22;;;24.30;52.40;;;;;;5066447;28;20538;-71
2022/06/16 13:17:13;;;;;;;5.03;2.85;;;24.20;52.70;;;;;;5057024;28;20032;-72
2022/06/16 13:19:47;;;;;;;4.95;2.90;;;24.10;53.80;;;;;;5060971;28;20044;-71
2022/06/16 13:23:10;;;;;;;12.80;6.72;;;23.80;53.40;;;;;;5063477;28;20037;-71
2022/06/16 13:25:42;;;;;;;5.28;3.20;;;23.70;54.50;;;;;;5034525;28;20053;-72
2022/06/16 13:28:29;;;;;;;6.38;3.05;;;23.60;53.70;;;;;;5062061;28;20371;-72
2022/06/16 13:31:13;;;;;;;3.67;3.03;;;23.30;54.30;;;;;;5071648;28;20020;-72
2022/06/16 13:33:43;;;;;;;4.82;3.53;;;23.00;55.00;;;;;;5071970;28;20040;-72
2022/06/16 13:36:15;;;;;;;7.35;2.47;;;22.90;54.60;;;;;;5071501;28;20020;-72
2022/06/16 13:38:45;;;;;;;3.83;3.03;;;22.80;54.70;;;;;;5053029;28;20041;-72
2022/06/16 13:41:29;;;;;;;6.55;3.10;;;22.70;54.90;;;;;;5070881;28;20432;-72